Norfolk, VA (23502)

4:35 AM EST on March 04, 2015 (GMT -0500)
Moores Bridges WTP | Change Station
CLOSE
Current Station
Personal Weather Station
Location: Norfolk, VA
Elevation: 9 ft
Nearby Weather Stations

Elev 9 ft 36.87 °N, 76.20 °W | Updated 4 minutes ago

Overcast
Overcast
48.4 °F
Feels Like 44 °F
N
9.0
Wind Variable Wind from SW
Gusts 16.0 mph

Today
High -- | Low -- °F
--% Chance of Precip.
Yesterday
High -- | Low -- °F
Precip. -- in
6:31 AM 6:01 PM
Waxing Gibbous, 98% visible
Pressure 29.92 in
Visibility 3.0 miles
Clouds Overcast 200 ft
Windchill 44 °F
Dew Point 44 °F
Humidity 86%
Rainfall 0.20 in
Snow Depth Not available.
UV 0 out of 12
Pollen 7.00 out of 12
Air Quality Not available.
Flu Activity Not available.
SPECI KORF 040930Z AUTO 22018KT 3SM BR OVC002 08/07 A2992 RMK AO2 PK WND 22027/0920 T00830072 TSNO

More Conditions Fewer Conditions

Pressure 29.92 in
Visibility 3.0 miles
Clouds Overcast 200 ft
Windchill 44 °F
Dew Point 44 °F
Humidity 86%
Rainfall 0.20 in
Snow Depth Not available.
UV 0 out of 12
Pollen 7.00 out of 12
Air Quality Not available.
Flu Activity Not available.
SPECI KORF 040930Z AUTO 22018KT 3SM BR OVC002 08/07 A2992 RMK AO2 PK WND 22027/0920 T00830072 TSNO

More Conditions Fewer Conditions

10-Day Weather Forecast

Almanac

Astronomy

Mar. 04, 2015 Rise Set
Actual Time
Civil Twilight
Nautical Twilight
Astronomical Twilight
Moon
Length of Visible Light
Length of Day
Tomorrow will be .
, % of the Moon is Illuminated

Today's Extremes

State Highs State Lows

Community

WunderPhotos

Upload Photos

1,802,425 photos uploaded!

WunderBlogs® & News

Nearby

Air Quality

  Air Quality AQ Index Pollutant
Not available.

Snow Depth

Station Depth Elevation

Earthquake Activity

City Distance Mag. Time & Date
Minimum magnitude displayed is 2.5.

Coastal Water Temperatures

Place Temperature

Nearby Weather Stations